sensor_id;sensor_type;location;lat;lon;timestamp;pressure;altitude;pressure_sealevel;temperature;humidity
45872;BME280;32333;55.844;-3.210;2023-04-28T00:01:52;98878.87;;;10.18;100.00
45872;BME280;32333;55.844;-3.210;2023-04-28T00:04:19;98876.75;;;9.64;100.00
45872;BME280;32333;55.844;-3.210;2023-04-28T00:06:47;98870.51;;;9.82;100.00
45872;BME280;32333;55.844;-3.210;2023-04-28T00:09:14;98869.68;;;9.68;100.00
45872;BME280;32333;55.844;-3.210;2023-04-28T00:11:43;98869.56;;;10.32;100.00
45872;BME280;32333;55.844;-3.210;2023-04-28T00:14:36;98870.45;;;9.79;100.00
45872;BME280;32333;55.844;-3.210;2023-04-28T00:17:03;98869.70;;;9.26;100.00
45872;BME280;32333;55.844;-3.210;2023-04-28T00:19:32;98866.65;;;8.61;100.00
45872;BME280;32333;55.844;-3.210;2023-04-28T00:22:00;98867.69;;;8.62;100.00
45872;BME280;32333;55.844;-3.210;2023-04-28T00:24:27;98866.02;;;9.24;100.00
45872;BME280;32333;55.844;-3.210;2023-04-28T00:26:56;98870.05;;;8.63;100.00
45872;BME280;32333;55.844;-3.210;2023-04-28T00:29:24;98869.09;;;9.29;100.00
45872;BME280;32333;55.844;-3.210;2023-04-28T00:31:51;98868.13;;;10.09;100.00
45872;BME280;32333;55.844;-3.210;2023-04-28T00:34:19;98867.26;;;9.53;100.00
45872;BME280;32333;55.844;-3.210;2023-04-28T00:36:47;98867.48;;;9.36;100.00
45872;BME280;32333;55.844;-3.210;2023-04-28T00:39:15;98865.73;;;10.34;100.00
45872;BME280;32333;55.844;-3.210;2023-04-28T00:41:49;98868.45;;;10.40;100.00
45872;BME280;32333;55.844;-3.210;2023-04-28T00:44:36;98869.82;;;10.27;100.00
45872;BME280;32333;55.844;-3.210;2023-04-28T00:47:05;98868.46;;;8.52;100.00
45872;BME280;32333;55.844;-3.210;2023-04-28T00:49:34;98864.99;;;9.29;100.00
45872;BME280;32333;55.844;-3.210;2023-04-28T00:52:05;98867.95;;;10.07;100.00
45872;BME280;32333;55.844;-3.210;2023-04-28T00:54:33;98865.52;;;10.24;100.00
45872;BME280;32333;55.844;-3.210;2023-04-28T00:57:00;98863.10;;;9.99;100.00
45872;BME280;32333;55.844;-3.210;2023-04-28T00:59:27;98861.42;;;9.65;100.00
45872;BME280;32333;55.844;-3.210;2023-04-28T01:01:55;98862.77;;;9.97;100.00
45872;BME280;32333;55.844;-3.210;2023-04-28T01:04:23;98862.11;;;10.15;100.00
45872;BME280;32333;55.844;-3.210;2023-04-28T01:06:52;98858.62;;;9.92;100.00
45872;BME280;32333;55.844;-3.210;2023-04-28T01:09:23;98853.27;;;9.93;100.00
45872;BME280;32333;55.844;-3.210;2023-04-28T01:11:50;98850.93;;;10.68;100.00
45872;BME280;32333;55.844;-3.210;2023-04-28T01:14:36;98851.48;;;10.16;100.00
45872;BME280;32333;55.844;-3.210;2023-04-28T01:17:03;98848.72;;;10.39;100.00
45872;BME280;32333;55.844;-3.210;2023-04-28T01:19:30;98849.61;;;8.48;100.00
45872;BME280;32333;55.844;-3.210;2023-04-28T01:21:57;98848.21;;;9.85;100.00
45872;BME280;32333;55.844;-3.210;2023-04-28T01:24:25;98844.82;;;10.58;100.00
45872;BME280;32333;55.844;-3.210;2023-04-28T01:26:52;98845.21;;;10.00;100.00
45872;BME280;32333;55.844;-3.210;2023-04-28T01:29:19;98844.38;;;9.94;100.00
45872;BME280;32333;55.844;-3.210;2023-04-28T01:31:48;98847.13;;;11.27;96.25
45872;BME280;32333;55.844;-3.210;2023-04-28T01:34:15;98853.34;;;11.58;94.16
45872;BME280;32333;55.844;-3.210;2023-04-28T01:36:43;98855.89;;;11.16;92.90
45872;BME280;32333;55.844;-3.210;2023-04-28T01:39:10;98850.44;;;10.43;95.58
45872;BME280;32333;55.844;-3.210;2023-04-28T01:41:38;98852.28;;;10.75;96.03
45872;BME280;32333;55.844;-3.210;2023-04-28T01:44:36;98850.57;;;10.35;98.38
45872;BME280;32333;55.844;-3.210;2023-04-28T01:47:03;98850.79;;;11.27;93.04
45872;BME280;32333;55.844;-3.210;2023-04-28T01:49:30;98852.81;;;10.58;97.18
45872;BME280;32333;55.844;-3.210;2023-04-28T01:51:57;98852.53;;;10.15;100.00
45872;BME280;32333;55.844;-3.210;2023-04-28T01:54:25;98855.71;;;9.10;100.00
45872;BME280;32333;55.844;-3.210;2023-04-28T01:56:52;98855.31;;;9.84;100.00
45872;BME280;32333;55.844;-3.210;2023-04-28T01:59:20;98852.89;;;9.82;100.00
45872;BME280;32333;55.844;-3.210;2023-04-28T02:01:48;98848.95;;;9.79;100.00
45872;BME280;32333;55.844;-3.210;2023-04-28T02:04:15;98848.33;;;9.21;100.00
45872;BME280;32333;55.844;-3.210;2023-04-28T02:06:42;98845.36;;;9.43;100.00
45872;BME280;32333;55.844;-3.210;2023-04-28T02:09:10;98845.21;;;9.50;100.00
45872;BME280;32333;55.844;-3.210;2023-04-28T02:11:38;98846.75;;;9.41;100.00
45872;BME280;32333;55.844;-3.210;2023-04-28T02:14:35;98842.93;;;9.51;100.00
45872;BME280;32333;55.844;-3.210;2023-04-28T02:17:03;98839.49;;;9.39;100.00
45872;BME280;32333;55.844;-3.210;2023-04-28T02:19:30;98836.59;;;9.08;100.00
45872;BME280;32333;55.844;-3.210;2023-04-28T02:21:58;98834.13;;;9.00;100.00
45872;BME280;32333;55.844;-3.210;2023-04-28T02:24:26;98836.82;;;8.17;100.00
45872;BME280;32333;55.844;-3.210;2023-04-28T02:26:53;98837.16;;;8.11;100.00
45872;BME280;32333;55.844;-3.210;2023-04-28T02:29:21;98839.51;;;8.75;100.00
45872;BME280;32333;55.844;-3.210;2023-04-28T02:31:48;98834.99;;;8.88;100.00
45872;BME280;32333;55.844;-3.210;2023-04-28T02:34:15;98835.02;;;9.62;100.00
45872;BME280;32333;55.844;-3.210;2023-04-28T02:36:43;98838.87;;;8.18;100.00
45872;BME280;32333;55.844;-3.210;2023-04-28T02:39:10;98840.31;;;8.35;100.00
45872;BME280;32333;55.844;-3.210;2023-04-28T02:41:37;98836.89;;;8.11;100.00
45872;BME280;32333;55.844;-3.210;2023-04-28T02:44:35;98836.05;;;9.16;100.00
45872;BME280;32333;55.844;-3.210;2023-04-28T02:47:03;98831.91;;;8.21;100.00
45872;BME280;32333;55.844;-3.210;2023-04-28T02:49:30;98831.06;;;8.85;100.00
45872;BME280;32333;55.844;-3.210;2023-04-28T02:51:59;98828.89;;;9.71;100.00
45872;BME280;32333;55.844;-3.210;2023-04-28T02:54:26;98828.93;;;8.71;100.00
45872;BME280;32333;55.844;-3.210;2023-04-28T02:56:54;98828.37;;;9.77;100.00
45872;BME280;32333;55.844;-3.210;2023-04-28T02:59:23;98827.96;;;10.51;100.00
45872;BME280;32333;55.844;-3.210;2023-04-28T03:01:51;98827.70;;;9.48;100.00
45872;BME280;32333;55.844;-3.210;2023-04-28T03:04:18;98825.33;;;9.81;100.00
45872;BME280;32333;55.844;-3.210;2023-04-28T03:06:47;98832.45;;;10.36;100.00
45872;BME280;32333;55.844;-3.210;2023-04-28T03:09:14;98834.42;;;10.79;100.00
45872;BME280;32333;55.844;-3.210;2023-04-28T03:11:41;98834.08;;;10.24;100.00
45872;BME280;32333;55.844;-3.210;2023-04-28T03:14:35;98831.77;;;10.44;100.00
45872;BME280;32333;55.844;-3.210;2023-04-28T03:17:03;98830.99;;;9.76;100.00
45872;BME280;32333;55.844;-3.210;2023-04-28T03:19:30;98835.78;;;8.98;100.00
45872;BME280;32333;55.844;-3.210;2023-04-28T03:21:58;98830.95;;;8.94;100.00
45872;BME280;32333;55.844;-3.210;2023-04-28T03:24:26;98835.04;;;7.60;100.00
45872;BME280;32333;55.844;-3.210;2023-04-28T03:26:53;98836.74;;;7.80;100.00
45872;BME280;32333;55.844;-3.210;2023-04-28T03:29:20;98836.60;;;8.18;100.00
45872;BME280;32333;55.844;-3.210;2023-04-28T03:31:48;98838.21;;;9.44;100.00
45872;BME280;32333;55.844;-3.210;2023-04-28T03:34:15;98838.79;;;10.45;100.00
45872;BME280;32333;55.844;-3.210;2023-04-28T03:36:43;98835.73;;;9.72;100.00
45872;BME280;32333;55.844;-3.210;2023-04-28T03:39:10;98835.48;;;9.02;100.00
45872;BME280;32333;55.844;-3.210;2023-04-28T03:41:38;98837.35;;;9.08;100.00
45872;BME280;32333;55.844;-3.210;2023-04-28T03:44:35;98835.12;;;9.23;100.00
45872;BME280;32333;55.844;-3.210;2023-04-28T03:47:03;98836.46;;;9.46;100.00
45872;BME280;32333;55.844;-3.210;2023-04-28T03:49:30;98834.52;;;9.16;100.00
45872;BME280;32333;55.844;-3.210;2023-04-28T03:51:58;98832.74;;;9.87;100.00
45872;BME280;32333;55.844;-3.210;2023-04-28T03:54:26;98838.28;;;8.87;100.00
45872;BME280;32333;55.844;-3.210;2023-04-28T03:56:53;98838.53;;;8.18;100.00
45872;BME280;32333;55.844;-3.210;2023-04-28T03:59:20;98835.17;;;7.30;100.00
45872;BME280;32333;55.844;-3.210;2023-04-28T04:01:48;98837.67;;;9.10;100.00
45872;BME280;32333;55.844;-3.210;2023-04-28T04:04:16;98841.94;;;9.44;100.00
45872;BME280;32333;55.844;-3.210;2023-04-28T04:06:43;98842.19;;;9.17;100.00
45872;BME280;32333;55.844;-3.210;2023-04-28T04:09:12;98839.36;;;9.52;100.00
45872;BME280;32333;55.844;-3.210;2023-04-28T04:11:39;98838.49;;;9.08;100.00
45872;BME280;32333;55.844;-3.210;2023-04-28T04:14:35;98840.61;;;8.86;100.00
45872;BME280;32333;55.844;-3.210;2023-04-28T04:17:04;98838.10;;;8.01;100.00
45872;BME280;32333;55.844;-3.210;2023-04-28T04:19:31;98836.03;;;8.93;100.00
45872;BME280;32333;55.844;-3.210;2023-04-28T04:21:59;98838.00;;;8.74;100.00
45872;BME280;32333;55.844;-3.210;2023-04-28T04:24:26;98834.32;;;7.63;100.00
45872;BME280;32333;55.844;-3.210;2023-04-28T04:26:54;98835.31;;;8.99;100.00
45872;BME280;32333;55.844;-3.210;2023-04-28T04:29:23;98838.41;;;8.44;100.00
45872;BME280;32333;55.844;-3.210;2023-04-28T04:31:50;98843.16;;;8.27;100.00
45872;BME280;32333;55.844;-3.210;2023-04-28T04:34:17;98846.98;;;8.56;100.00
45872;BME280;32333;55.844;-3.210;2023-04-28T04:36:45;98845.31;;;7.79;100.00
45872;BME280;32333;55.844;-3.210;2023-04-28T04:39:12;98845.06;;;8.17;100.00
45872;BME280;32333;55.844;-3.210;2023-04-28T04:41:40;98845.92;;;8.57;100.00
45872;BME280;32333;55.844;-3.210;2023-04-28T04:44:35;98842.30;;;9.35;100.00
45872;BME280;32333;55.844;-3.210;2023-04-28T04:47:02;98842.09;;;9.48;100.00
45872;BME280;32333;55.844;-3.210;2023-04-28T04:49:29;98844.06;;;8.47;100.00
45872;BME280;32333;55.844;-3.210;2023-04-28T04:51:57;98844.15;;;9.35;100.00
45872;BME280;32333;55.844;-3.210;2023-04-28T04:54:24;98842.51;;;8.87;100.00
45872;BME280;32333;55.844;-3.210;2023-04-28T04:56:51;98842.24;;;9.54;100.00
45872;BME280;32333;55.844;-3.210;2023-04-28T04:59:19;98843.08;;;9.13;100.00
45872;BME280;32333;55.844;-3.210;2023-04-28T05:01:46;98848.20;;;8.59;100.00
45872;BME280;32333;55.844;-3.210;2023-04-28T05:04:14;98849.14;;;8.12;100.00
45872;BME280;32333;55.844;-3.210;2023-04-28T05:06:42;98845.85;;;9.00;100.00
45872;BME280;32333;55.844;-3.210;2023-04-28T05:09:10;98850.22;;;8.80;100.00
45872;BME280;32333;55.844;-3.210;2023-04-28T05:11:38;98850.97;;;8.73;100.00
45872;BME280;32333;55.844;-3.210;2023-04-28T05:14:36;98854.74;;;10.21;100.00
45872;BME280;32333;55.844;-3.210;2023-04-28T05:17:03;98854.08;;;9.68;100.00
45872;BME280;32333;55.844;-3.210;2023-04-28T05:19:31;98856.79;;;10.13;100.00
45872;BME280;32333;55.844;-3.210;2023-04-28T05:21:59;98859.34;;;9.68;100.00
45872;BME280;32333;55.844;-3.210;2023-04-28T05:24:26;98860.40;;;9.34;100.00
45872;BME280;32333;55.844;-3.210;2023-04-28T05:26:57;98859.25;;;9.65;100.00
45872;BME280;32333;55.844;-3.210;2023-04-28T05:29:25;98861.34;;;9.94;100.00
45872;BME280;32333;55.844;-3.210;2023-04-28T05:31:52;98864.57;;;9.46;100.00
45872;BME280;32333;55.844;-3.210;2023-04-28T05:34:20;98866.41;;;10.19;100.00
45872;BME280;32333;55.844;-3.210;2023-04-28T05:36:48;98866.43;;;9.40;100.00
45872;BME280;32333;55.844;-3.210;2023-04-28T05:39:16;98869.14;;;10.19;100.00
45872;BME280;32333;55.844;-3.210;2023-04-28T05:41:42;98875.33;;;10.43;100.00
45872;BME280;32333;55.844;-3.210;2023-04-28T05:44:36;98874.06;;;9.78;100.00
45872;BME280;32333;55.844;-3.210;2023-04-28T05:47:04;98876.88;;;9.53;100.00
45872;BME280;32333;55.844;-3.210;2023-04-28T05:49:31;98880.30;;;10.07;100.00
45872;BME280;32333;55.844;-3.210;2023-04-28T05:51:59;98884.17;;;10.30;100.00
45872;BME280;32333;55.844;-3.210;2023-04-28T05:54:26;98881.44;;;9.62;100.00
45872;BME280;32333;55.844;-3.210;2023-04-28T05:56:54;98883.27;;;10.10;100.00
45872;BME280;32333;55.844;-3.210;2023-04-28T05:59:22;98885.01;;;10.73;100.00
45872;BME280;32333;55.844;-3.210;2023-04-28T06:01:49;98884.35;;;10.21;100.00
45872;BME280;32333;55.844;-3.210;2023-04-28T06:04:17;98884.79;;;10.71;100.00
45872;BME280;32333;55.844;-3.210;2023-04-28T06:06:44;98885.12;;;11.31;99.25
45872;BME280;32333;55.844;-3.210;2023-04-28T06:09:12;98890.31;;;10.85;100.00
45872;BME280;32333;55.844;-3.210;2023-04-28T06:11:40;98891.82;;;10.39;100.00
45872;BME280;32333;55.844;-3.210;2023-04-28T06:14:35;98890.21;;;9.89;100.00
45872;BME280;32333;55.844;-3.210;2023-04-28T06:17:03;98894.78;;;9.95;100.00
45872;BME280;32333;55.844;-3.210;2023-04-28T06:19:31;98896.10;;;11.18;100.00
45872;BME280;32333;55.844;-3.210;2023-04-28T06:21:59;98895.62;;;9.99;100.00
45872;BME280;32333;55.844;-3.210;2023-04-28T06:24:26;98898.42;;;12.02;99.87
45872;BME280;32333;55.844;-3.210;2023-04-28T06:26:54;98901.25;;;11.70;98.66
45872;BME280;32333;55.844;-3.210;2023-04-28T06:29:23;98904.73;;;11.78;98.25
45872;BME280;32333;55.844;-3.210;2023-04-28T06:31:50;98905.87;;;10.90;100.00
45872;BME280;32333;55.844;-3.210;2023-04-28T06:34:17;98909.33;;;10.39;100.00
45872;BME280;32333;55.844;-3.210;2023-04-28T06:36:44;98908.78;;;10.77;100.00
45872;BME280;32333;55.844;-3.210;2023-04-28T06:39:12;98908.76;;;10.56;100.00
45872;BME280;32333;55.844;-3.210;2023-04-28T06:41:39;98911.23;;;11.47;100.00
45872;BME280;32333;55.844;-3.210;2023-04-28T06:44:35;98912.74;;;11.19;100.00
45872;BME280;32333;55.844;-3.210;2023-04-28T06:47:03;98911.81;;;10.59;100.00
45872;BME280;32333;55.844;-3.210;2023-04-28T06:49:30;98913.30;;;11.71;98.81
45872;BME280;32333;55.844;-3.210;2023-04-28T06:51:58;98915.44;;;11.42;100.00
45872;BME280;32333;55.844;-3.210;2023-04-28T06:54:25;98916.39;;;10.86;100.00
45872;BME280;32333;55.844;-3.210;2023-04-28T06:56:53;98921.11;;;11.34;100.00
45872;BME280;32333;55.844;-3.210;2023-04-28T06:59:20;98922.08;;;11.68;99.54
45872;BME280;32333;55.844;-3.210;2023-04-28T07:01:48;98921.83;;;12.07;94.55
45872;BME280;32333;55.844;-3.210;2023-04-28T07:04:16;98924.54;;;12.61;93.14
45872;BME280;32333;55.844;-3.210;2023-04-28T07:06:44;98922.74;;;12.38;91.81
45872;BME280;32333;55.844;-3.210;2023-04-28T07:09:12;98924.98;;;13.10;91.13
45872;BME280;32333;55.844;-3.210;2023-04-28T07:11:39;98933.99;;;11.24;100.00
45872;BME280;32333;55.844;-3.210;2023-04-28T07:14:35;98931.31;;;12.27;93.58
45872;BME280;32333;55.844;-3.210;2023-04-28T07:17:02;98935.11;;;12.78;90.66
45872;BME280;32333;55.844;-3.210;2023-04-28T07:19:30;98938.14;;;13.09;91.07
45872;BME280;32333;55.844;-3.210;2023-04-28T07:21:58;98939.64;;;13.22;89.79
45872;BME280;32333;55.844;-3.210;2023-04-28T07:24:26;98937.87;;;13.10;89.91
45872;BME280;32333;55.844;-3.210;2023-04-28T07:26:53;98939.64;;;12.08;97.26
45872;BME280;32333;55.844;-3.210;2023-04-28T07:29:20;98940.14;;;12.37;94.59
45872;BME280;32333;55.844;-3.210;2023-04-28T07:31:47;98943.64;;;12.79;90.97
45872;BME280;32333;55.844;-3.210;2023-04-28T07:34:15;98946.60;;;11.57;91.39
45872;BME280;32333;55.844;-3.210;2023-04-28T07:36:43;98945.49;;;12.60;89.53
45872;BME280;32333;55.844;-3.210;2023-04-28T07:39:11;98948.54;;;13.51;84.12
45872;BME280;32333;55.844;-3.210;2023-04-28T07:41:39;98951.31;;;12.52;89.78
45872;BME280;32333;55.844;-3.210;2023-04-28T07:44:35;98956.34;;;12.21;91.84
45872;BME280;32333;55.844;-3.210;2023-04-28T07:47:03;98961.26;;;11.70;92.98
45872;BME280;32333;55.844;-3.210;2023-04-28T07:49:31;98960.94;;;11.92;91.86
45872;BME280;32333;55.844;-3.210;2023-04-28T07:51:58;98962.53;;;12.20;92.80
45872;BME280;32333;55.844;-3.210;2023-04-28T07:54:26;98970.35;;;11.44;98.12
45872;BME280;32333;55.844;-3.210;2023-04-28T07:56:54;98975.00;;;12.04;95.14
45872;BME280;32333;55.844;-3.210;2023-04-28T07:59:22;98969.78;;;12.51;93.20
45872;BME280;32333;55.844;-3.210;2023-04-28T08:01:52;98975.61;;;12.27;94.76
45872;BME280;32333;55.844;-3.210;2023-04-28T08:04:19;98980.40;;;12.08;97.00
45872;BME280;32333;55.844;-3.210;2023-04-28T08:06:46;98977.64;;;12.18;95.39
45872;BME280;32333;55.844;-3.210;2023-04-28T08:09:15;98985.94;;;12.13;96.69
45872;BME280;32333;55.844;-3.210;2023-04-28T08:11:42;98988.17;;;11.12;100.00
45872;BME280;32333;55.844;-3.210;2023-04-28T08:14:35;98990.56;;;11.99;100.00
45872;BME280;32333;55.844;-3.210;2023-04-28T08:17:02;98990.51;;;12.23;99.52
45872;BME280;32333;55.844;-3.210;2023-04-28T08:19:30;98994.00;;;12.02;99.19
45872;BME280;32333;55.844;-3.210;2023-04-28T08:21:58;98995.03;;;12.20;98.49
45872;BME280;32333;55.844;-3.210;2023-04-28T08:24:25;98998.58;;;12.00;98.16
45872;BME280;32333;55.844;-3.210;2023-04-28T08:26:52;98999.65;;;12.48;96.82
45872;BME280;32333;55.844;-3.210;2023-04-28T08:29:21;99008.43;;;11.85;97.06
45872;BME280;32333;55.844;-3.210;2023-04-28T08:31:48;99007.90;;;11.34;100.00
45872;BME280;32333;55.844;-3.210;2023-04-28T08:34:15;99005.49;;;12.62;100.00
45872;BME280;32333;55.844;-3.210;2023-04-28T08:36:43;99001.81;;;12.36;100.00
45872;BME280;32333;55.844;-3.210;2023-04-28T08:39:11;99003.97;;;12.67;100.00
45872;BME280;32333;55.844;-3.210;2023-04-28T08:41:38;99011.03;;;11.62;100.00
45872;BME280;32333;55.844;-3.210;2023-04-28T08:44:37;99007.99;;;12.75;96.89
45872;BME280;32333;55.844;-3.210;2023-04-28T08:47:10;99014.08;;;11.63;100.00
45872;BME280;32333;55.844;-3.210;2023-04-28T08:49:39;99015.93;;;11.01;100.00
45872;BME280;32333;55.844;-3.210;2023-04-28T08:52:09;99016.50;;;11.84;100.00
45872;BME280;32333;55.844;-3.210;2023-04-28T08:54:38;99013.23;;;13.12;96.95
45872;BME280;32333;55.844;-3.210;2023-04-28T08:57:08;99013.82;;;12.87;98.39
45872;BME280;32333;55.844;-3.210;2023-04-28T08:59:38;99018.79;;;11.21;100.00
45872;BME280;32333;55.844;-3.210;2023-04-28T09:02:07;99014.18;;;13.00;98.79
45872;BME280;32333;55.844;-3.210;2023-04-28T09:04:35;99013.19;;;14.67;87.94
45872;BME280;32333;55.844;-3.210;2023-04-28T09:07:02;99015.58;;;13.38;92.76
45872;BME280;32333;55.844;-3.210;2023-04-28T09:09:30;99010.47;;;13.29;88.72
45872;BME280;32333;55.844;-3.210;2023-04-28T09:12:00;99014.44;;;13.00;91.63
45872;BME280;32333;55.844;-3.210;2023-04-28T09:14:36;99017.25;;;13.75;94.40
45872;BME280;32333;55.844;-3.210;2023-04-28T09:17:09;99019.36;;;12.92;98.29
45872;BME280;32333;55.844;-3.210;2023-04-28T09:19:38;99020.90;;;14.68;87.58
45872;BME280;32333;55.844;-3.210;2023-04-28T09:22:06;99022.78;;;13.88;86.46
45872;BME280;32333;55.844;-3.210;2023-04-28T09:24:34;99021.71;;;14.95;81.54
45872;BME280;32333;55.844;-3.210;2023-04-28T09:27:04;99026.55;;;13.37;88.12
45872;BME280;32333;55.844;-3.210;2023-04-28T09:29:32;99031.45;;;12.87;91.44
45872;BME280;32333;55.844;-3.210;2023-04-28T09:32:17;99033.92;;;14.18;89.44
45872;BME280;32333;55.844;-3.210;2023-04-28T09:34:45;99034.19;;;14.18;86.49
45872;BME280;32333;55.844;-3.210;2023-04-28T09:37:16;99031.83;;;14.61;75.16
45872;BME280;32333;55.844;-3.210;2023-04-28T09:39:44;99038.22;;;14.80;78.70
45872;BME280;32333;55.844;-3.210;2023-04-28T09:44:36;99040.28;;;15.50;77.08
45872;BME280;32333;55.844;-3.210;2023-04-28T09:47:19;99046.81;;;12.10;91.23
45872;BME280;32333;55.844;-3.210;2023-04-28T09:49:53;99048.86;;;13.26;82.71
45872;BME280;32333;55.844;-3.210;2023-04-28T09:52:20;99051.37;;;13.91;82.07
45872;BME280;32333;55.844;-3.210;2023-04-28T09:54:50;99052.25;;;14.77;79.22
45872;BME280;32333;55.844;-3.210;2023-04-28T09:57:19;99054.73;;;13.12;84.81
45872;BME280;32333;55.844;-3.210;2023-04-28T09:59:48;99057.13;;;14.62;80.27
45872;BME280;32333;55.844;-3.210;2023-04-28T10:02:19;99061.04;;;13.16;85.11
45872;BME280;32333;55.844;-3.210;2023-04-28T10:04:49;99058.75;;;15.31;75.14
45872;BME280;32333;55.844;-3.210;2023-04-28T10:07:18;99058.55;;;15.62;72.99
45872;BME280;32333;55.844;-3.210;2023-04-28T10:09:46;99061.59;;;15.75;71.38
45872;BME280;32333;55.844;-3.210;2023-04-28T10:14:36;99065.87;;;15.03;73.11
45872;BME280;32333;55.844;-3.210;2023-04-28T10:17:04;99069.86;;;13.67;81.51
45872;BME280;32333;55.844;-3.210;2023-04-28T10:19:31;99071.63;;;14.11;83.79
45872;BME280;32333;55.844;-3.210;2023-04-28T10:22:08;99076.84;;;14.29;85.88
45872;BME280;32333;55.844;-3.210;2023-04-28T10:24:56;99077.18;;;12.91;90.80
45872;BME280;32333;55.844;-3.210;2023-04-28T10:27:29;99079.94;;;13.93;91.33
45872;BME280;32333;55.844;-3.210;2023-04-28T10:30:09;99090.58;;;11.98;100.00
45872;BME280;32333;55.844;-3.210;2023-04-28T10:32:38;99088.24;;;12.69;100.00
45872;BME280;32333;55.844;-3.210;2023-04-28T10:35:43;99095.51;;;12.70;100.00
45872;BME280;32333;55.844;-3.210;2023-04-28T10:38:16;99094.58;;;12.32;100.00
45872;BME280;32333;55.844;-3.210;2023-04-28T10:40:46;99099.80;;;12.03;100.00
45872;BME280;32333;55.844;-3.210;2023-04-28T10:44:43;99102.19;;;12.70;100.00
45872;BME280;32333;55.844;-3.210;2023-04-28T10:47:11;99098.17;;;11.62;100.00
45872;BME280;32333;55.844;-3.210;2023-04-28T10:50:11;99095.04;;;11.45;100.00
45872;BME280;32333;55.844;-3.210;2023-04-28T10:52:51;99100.55;;;11.94;100.00
45872;BME280;32333;55.844;-3.210;2023-04-28T10:55:28;99101.58;;;10.56;100.00
45872;BME280;32333;55.844;-3.210;2023-04-28T10:58:30;99105.18;;;12.54;100.00
45872;BME280;32333;55.844;-3.210;2023-04-28T11:01:37;99107.16;;;13.46;100.00
45872;BME280;32333;55.844;-3.210;2023-04-28T11:04:29;99107.06;;;12.75;100.00
45872;BME280;32333;55.844;-3.210;2023-04-28T11:07:37;99109.39;;;14.34;100.00
45872;BME280;32333;55.844;-3.210;2023-04-28T11:10:05;99113.31;;;11.84;100.00
45872;BME280;32333;55.844;-3.210;2023-04-28T11:14:37;99110.35;;;13.33;100.00
45872;BME280;32333;55.844;-3.210;2023-04-28T11:17:07;99110.74;;;12.89;100.00
45872;BME280;32333;55.844;-3.210;2023-04-28T11:19:38;99117.11;;;12.14;100.00
45872;BME280;32333;55.844;-3.210;2023-04-28T11:22:13;99118.70;;;12.14;100.00
45872;BME280;32333;55.844;-3.210;2023-04-28T11:24:41;99113.25;;;13.15;100.00
45872;BME280;32333;55.844;-3.210;2023-04-28T11:27:23;99111.28;;;13.16;100.00
45872;BME280;32333;55.844;-3.210;2023-04-28T11:29:51;99113.25;;;13.15;100.00
45872;BME280;32333;55.844;-3.210;2023-04-28T11:32:25;99111.54;;;12.90;100.00
45872;BME280;32333;55.844;-3.210;2023-04-28T11:34:53;99117.26;;;12.65;100.00
45872;BME280;32333;55.844;-3.210;2023-04-28T11:37:21;99111.54;;;13.36;100.00
45872;BME280;32333;55.844;-3.210;2023-04-28T11:39:49;99119.75;;;12.25;100.00
45872;BME280;32333;55.844;-3.210;2023-04-28T11:44:35;99116.71;;;13.91;95.47
45872;BME280;32333;55.844;-3.210;2023-04-28T11:47:04;99125.26;;;11.87;100.00
45872;BME280;32333;55.844;-3.210;2023-04-28T11:49:42;99127.76;;;12.12;100.00
45872;BME280;32333;55.844;-3.210;2023-04-28T11:52:11;99126.90;;;11.73;100.00
45872;BME280;32333;55.844;-3.210;2023-04-28T11:54:39;99124.16;;;12.66;100.00
45872;BME280;32333;55.844;-3.210;2023-04-28T11:57:16;99132.97;;;12.48;100.00
45872;BME280;32333;55.844;-3.210;2023-04-28T11:59:43;99129.89;;;13.28;100.00
45872;BME280;32333;55.844;-3.210;2023-04-28T12:02:11;99131.90;;;13.51;100.00
45872;BME280;32333;55.844;-3.210;2023-04-28T12:04:41;99147.51;;;11.97;100.00
45872;BME280;32333;55.844;-3.210;2023-04-28T12:07:10;99146.47;;;12.40;100.00
45872;BME280;32333;55.844;-3.210;2023-04-28T12:09:41;99150.22;;;12.57;100.00
45872;BME280;32333;55.844;-3.210;2023-04-28T12:15:01;99148.80;;;13.92;100.00
45872;BME280;32333;55.844;-3.210;2023-04-28T12:17:35;99155.91;;;12.77;100.00
45872;BME280;32333;55.844;-3.210;2023-04-28T12:20:06;99150.51;;;13.29;100.00
45872;BME280;32333;55.844;-3.210;2023-04-28T12:22:43;99152.79;;;14.00;100.00
45872;BME280;32333;55.844;-3.210;2023-04-28T12:25:13;99153.63;;;13.12;100.00
45872;BME280;32333;55.844;-3.210;2023-04-28T12:30:24;99156.84;;;13.18;100.00
45872;BME280;32333;55.844;-3.210;2023-04-28T12:32:55;99164.11;;;12.10;100.00
45872;BME280;32333;55.844;-3.210;2023-04-28T12:35:23;99167.59;;;12.37;100.00
45872;BME280;32333;55.844;-3.210;2023-04-28T12:37:51;99170.83;;;12.76;100.00
45872;BME280;32333;55.844;-3.210;2023-04-28T12:40:19;99172.94;;;12.60;100.00
45872;BME280;32333;55.844;-3.210;2023-04-28T12:44:36;99173.62;;;13.59;100.00
45872;BME280;32333;55.844;-3.210;2023-04-28T12:47:05;99177.15;;;12.71;100.00
45872;BME280;32333;55.844;-3.210;2023-04-28T12:49:34;99176.59;;;14.20;100.00
45872;BME280;32333;55.844;-3.210;2023-04-28T12:52:04;99187.19;;;13.02;100.00
45872;BME280;32333;55.844;-3.210;2023-04-28T12:54:32;99191.81;;;12.82;100.00
45872;BME280;32333;55.844;-3.210;2023-04-28T12:57:00;99187.33;;;11.53;100.00
45872;BME280;32333;55.844;-3.210;2023-04-28T12:59:27;99191.01;;;11.50;100.00
45872;BME280;32333;55.844;-3.210;2023-04-28T13:01:55;99193.35;;;12.21;100.00
45872;BME280;32333;55.844;-3.210;2023-04-28T13:04:23;99195.98;;;12.56;100.00
45872;BME280;32333;55.844;-3.210;2023-04-28T13:06:52;99198.07;;;12.07;100.00
45872;BME280;32333;55.844;-3.210;2023-04-28T13:09:22;99202.32;;;12.47;100.00
45872;BME280;32333;55.844;-3.210;2023-04-28T13:11:53;99202.96;;;11.81;100.00
45872;BME280;32333;55.844;-3.210;2023-04-28T13:14:36;99204.10;;;11.68;100.00
45872;BME280;32333;55.844;-3.210;2023-04-28T13:17:06;99210.79;;;11.45;100.00
45872;BME280;32333;55.844;-3.210;2023-04-28T13:19:34;99214.56;;;12.28;100.00
45872;BME280;32333;55.844;-3.210;2023-04-28T13:22:02;99214.10;;;11.40;100.00